createdAt,value
2022-12-03T00:07:45.577Z,0.9
2022-12-03T00:17:47.624Z,0.9
2022-12-03T00:27:49.818Z,0.9
2022-12-03T00:37:51.696Z,0.9
2022-12-03T00:47:53.553Z,0.9
2022-12-03T00:57:56.243Z,0.9
2022-12-03T01:07:58.252Z,0.9
2022-12-03T01:18:00.096Z,0.9
2022-12-03T01:28:02.628Z,0.9
2022-12-03T01:38:04.698Z,0.9
2022-12-03T01:48:07.231Z,0.9
2022-12-03T01:58:09.048Z,0.9
2022-12-03T02:18:13.459Z,0.9
2022-12-03T02:28:16.147Z,0.9
2022-12-03T02:38:17.848Z,0.9
2022-12-03T02:48:20.028Z,0.9
2022-12-03T02:58:21.862Z,0.8
2022-12-03T03:08:23.718Z,0.8
2022-12-03T03:18:25.850Z,0.8
2022-12-03T03:28:27.807Z,0.8
2022-12-03T03:38:29.981Z,0.8
2022-12-03T03:48:32.399Z,0.7
2022-12-03T03:58:34.912Z,0.6
2022-12-03T04:08:36.659Z,0.6
2022-12-03T04:18:38.709Z,0.6
2022-12-03T04:28:41.473Z,0.6
2022-12-03T04:38:43.922Z,0.6
2022-12-03T04:48:46.049Z,0.6
2022-12-03T04:58:48.568Z,0.6
2022-12-03T05:08:50.732Z,0.5
2022-12-03T05:18:52.803Z,0.5
2022-12-03T05:28:54.703Z,0.4
2022-12-03T05:38:56.567Z,0.5
2022-12-03T05:48:58.910Z,0.4
2022-12-03T05:59:00.795Z,0.4
2022-12-03T06:09:03.008Z,0.3
2022-12-03T06:19:05.703Z,0.3
2022-12-03T06:39:09.572Z,0.2
2022-12-03T06:49:11.595Z,0.2
2022-12-03T06:59:13.774Z,0.1
2022-12-03T07:09:15.519Z,0.1
2022-12-03T07:19:17.367Z,0.1
2022-12-03T07:29:20.052Z,0
2022-12-03T07:39:21.886Z,0.1
2022-12-03T07:49:23.645Z,0.1
2022-12-03T07:59:25.686Z,0.2
2022-12-03T08:09:27.722Z,0.1
2022-12-03T08:19:29.888Z,0.2
2022-12-03T08:29:31.652Z,0.1
2022-12-03T08:39:34.115Z,0.1
2022-12-03T08:49:35.911Z,0.2
2022-12-03T08:59:40.276Z,0.2
2022-12-03T09:09:41.181Z,0.2
2022-12-03T09:19:46.031Z,0.1
2022-12-03T09:29:45.502Z,0.1
2022-12-03T09:39:47.313Z,0.3
2022-12-03T09:49:49.034Z,0.2
2022-12-03T09:59:51.101Z,0.3
2022-12-03T10:09:53.643Z,0.3
2022-12-03T10:19:55.534Z,0.3
2022-12-03T10:39:59.802Z,0.5
2022-12-03T10:42:54.284Z,0.5
2022-12-03T10:50:12.078Z,0.5
2022-12-03T11:00:14.610Z,0.5
2022-12-03T11:10:17.224Z,0.5
2022-12-03T11:20:22.723Z,0.5
2022-12-03T11:30:21.411Z,0.6
2022-12-03T11:40:23.300Z,0.6
2022-12-03T11:50:25.524Z,0.7
2022-12-03T12:00:27.344Z,0.8
2022-12-03T12:10:29.542Z,0.7
2022-12-03T12:20:32.102Z,0.8
2022-12-03T12:30:34.122Z,0.8
2022-12-03T12:40:36.446Z,0.9
2022-12-03T12:50:38.866Z,0.8
2022-12-03T13:00:41.299Z,0.9
2022-12-03T13:10:43.086Z,0.8
2022-12-03T13:30:47.544Z,0.9
2022-12-03T13:40:49.327Z,0.8
2022-12-03T13:50:51.981Z,0.8
2022-12-03T14:00:53.755Z,0.7
2022-12-03T14:11:00.274Z,0.6
2022-12-03T14:20:58.503Z,0.5
2022-12-03T14:31:00.201Z,0.5
2022-12-03T14:41:02.473Z,0.5
2022-12-03T14:51:04.452Z,0.5
2022-12-03T15:01:06.478Z,0.4
2022-12-03T15:11:08.854Z,0.3
2022-12-03T15:21:11.199Z,0.3
2022-12-03T15:31:13.375Z,0.1
2022-12-03T15:41:15.223Z,0.3
2022-12-03T15:51:17.213Z,0.2
2022-12-03T16:01:19.203Z,0.1
2022-12-03T16:11:21.682Z,0.1
2022-12-03T16:21:26.892Z,0.2
2022-12-03T16:31:26.300Z,0.1
2022-12-03T16:41:28.679Z,0.3
2022-12-03T16:51:31.197Z,0.1
2022-12-03T17:01:33.755Z,0.1
2022-12-03T17:11:35.515Z,0.1
2022-12-03T17:21:37.441Z,0
2022-12-03T17:31:42.101Z,0.1
2022-12-03T17:41:41.303Z,0.1
2022-12-03T18:01:45.052Z,0
2022-12-03T18:11:46.941Z,0
2022-12-03T18:21:48.891Z,0
2022-12-03T18:31:51.577Z,0
2022-12-03T18:41:53.596Z,0
2022-12-03T18:51:59.442Z,0
2022-12-03T19:01:58.025Z,0
2022-12-03T19:12:00.579Z,-0.1
2022-12-03T19:22:02.956Z,0.1
2022-12-03T19:32:05.042Z,0
2022-12-03T19:52:09.057Z,0
2022-12-03T20:02:11.500Z,0
2022-12-03T20:12:13.798Z,-0.1
2022-12-03T20:22:16.033Z,0
2022-12-03T20:32:18.337Z,0
2022-12-03T20:42:20.059Z,-0.1
2022-12-03T20:52:21.873Z,-0.1
2022-12-03T21:02:24.151Z,-0.1
2022-12-03T21:12:26.743Z,0
2022-12-03T21:22:28.878Z,-0.1
2022-12-03T21:42:35.175Z,-0.1
2022-12-03T21:52:34.697Z,-0.1
2022-12-03T22:02:36.475Z,-0.1
2022-12-03T22:12:39.083Z,-0.1
2022-12-03T22:22:41.179Z,-0.1
2022-12-03T22:32:43.705Z,-0.1
2022-12-03T22:42:50.721Z,-0.1
2022-12-03T22:52:48.365Z,0
2022-12-03T23:02:50.370Z,-0.1
2022-12-03T23:12:52.124Z,0
2022-12-03T23:22:54.535Z,-0.1
2022-12-03T23:32:56.861Z,0
2022-12-03T23:42:59.140Z,-0.1
2022-12-03T23:53:01.783Z,-0.1
